createdAt,value
2023-04-29T00:01:46.255Z,2.17
2023-04-29T00:04:13.965Z,2.25
2023-04-29T00:06:40.774Z,2.60
2023-04-29T00:09:07.163Z,2.20
2023-04-29T00:11:34.160Z,2.47
2023-04-29T00:14:00.606Z,2.90
2023-04-29T00:16:27.042Z,2.88
2023-04-29T00:18:53.515Z,2.72
2023-04-29T00:21:20.900Z,2.47
2023-04-29T00:23:47.312Z,2.33
2023-04-29T00:26:14.156Z,2.33
2023-04-29T00:28:40.669Z,2.05
2023-04-29T00:31:07.595Z,2.55
2023-04-29T00:33:34.079Z,1.98
2023-04-29T00:36:00.708Z,2.25
2023-04-29T00:38:27.068Z,2.13
2023-04-29T00:40:53.566Z,2.25
2023-04-29T00:43:20.158Z,2.28
2023-04-29T00:45:52.650Z,2.20
2023-04-29T00:48:19.068Z,2.03
2023-04-29T00:50:45.488Z,2.33
2023-04-29T00:53:14.602Z,2.33
2023-04-29T00:55:41.584Z,2.47
2023-04-29T00:58:10.000Z,2.50
2023-04-29T01:00:39.016Z,2.13
2023-04-29T01:03:05.773Z,2.50
2023-04-29T01:05:33.044Z,2.40
2023-04-29T01:08:18.693Z,2.20
2023-04-29T01:10:49.488Z,2.05
2023-04-29T01:13:26.016Z,1.98
2023-04-29T01:15:59.415Z,2.08
2023-04-29T01:18:46.398Z,2.88
2023-04-29T01:21:12.882Z,2.03
2023-04-29T01:23:39.264Z,2.70
2023-04-29T01:26:06.176Z,2.33
2023-04-29T01:28:35.945Z,2.15
2023-04-29T01:31:20.932Z,2.78
2023-04-29T01:33:59.040Z,2.40
2023-04-29T01:36:29.030Z,2.08
2023-04-29T01:39:08.340Z,2.08
2023-04-29T01:41:55.061Z,2.20
2023-04-29T01:44:23.894Z,1.95
2023-04-29T01:46:54.429Z,2.08
2023-04-29T01:49:27.798Z,2.30
2023-04-29T01:51:54.288Z,2.10
2023-04-29T01:54:22.432Z,2.50
2023-04-29T01:56:49.110Z,2.50
2023-04-29T01:59:15.638Z,2.10
2023-04-29T02:01:42.175Z,2.25
2023-04-29T02:04:08.699Z,2.28
2023-04-29T02:06:35.178Z,2.08
2023-04-29T02:09:01.572Z,2.35
2023-04-29T02:11:28.027Z,2.00
2023-04-29T02:13:54.854Z,2.35
2023-04-29T02:16:21.286Z,1.90
2023-04-29T02:18:47.780Z,2.20
2023-04-29T02:21:14.206Z,2.28
2023-04-29T02:23:40.752Z,2.28
2023-04-29T02:26:07.489Z,2.33
2023-04-29T02:28:35.149Z,2.63
2023-04-29T02:31:01.870Z,2.05
2023-04-29T02:33:28.378Z,2.35
2023-04-29T02:35:55.008Z,2.15
2023-04-29T02:38:21.450Z,2.20
2023-04-29T02:40:48.037Z,1.98
2023-04-29T02:43:14.455Z,2.53
2023-04-29T02:45:41.073Z,2.17
2023-04-29T02:48:07.814Z,2.17
2023-04-29T02:50:34.323Z,2.50
2023-04-29T02:53:00.799Z,2.83
2023-04-29T02:55:27.679Z,3.03
2023-04-29T02:57:54.074Z,1.90
2023-04-29T03:00:21.190Z,3.00
2023-04-29T03:02:47.746Z,2.60
2023-04-29T03:05:14.402Z,2.25
2023-04-29T03:07:40.860Z,2.60
2023-04-29T03:10:07.692Z,2.45
2023-04-29T03:12:34.773Z,2.35
2023-04-29T03:15:03.270Z,2.80
2023-04-29T03:17:29.800Z,2.38
2023-04-29T03:19:56.351Z,2.35
2023-04-29T03:22:22.874Z,2.30
2023-04-29T03:24:49.397Z,2.90
2023-04-29T03:27:16.043Z,2.28
2023-04-29T03:29:42.480Z,2.40
2023-04-29T03:32:08.966Z,2.75
2023-04-29T03:34:35.498Z,2.00
2023-04-29T03:37:02.664Z,2.60
2023-04-29T03:39:32.793Z,3.08
2023-04-29T03:41:59.690Z,2.38
2023-04-29T03:44:26.423Z,2.53
2023-04-29T03:46:52.948Z,2.45
2023-04-29T03:49:19.416Z,2.90
2023-04-29T03:51:45.767Z,2.60
2023-04-29T03:54:12.617Z,2.65
2023-04-29T03:56:39.354Z,2.85
2023-04-29T03:59:05.889Z,2.67
2023-04-29T04:01:32.314Z,2.70
2023-04-29T04:03:58.883Z,2.38
2023-04-29T04:06:25.648Z,2.50
2023-04-29T04:08:52.120Z,2.75
2023-04-29T04:11:18.613Z,2.35
2023-04-29T04:13:45.177Z,2.20
2023-04-29T04:16:11.845Z,2.20
2023-04-29T04:18:38.929Z,2.55
2023-04-29T04:21:08.791Z,2.20
2023-04-29T04:23:35.689Z,2.00
2023-04-29T04:26:02.592Z,2.17
2023-04-29T04:28:29.105Z,2.53
2023-04-29T04:30:55.541Z,2.60
2023-04-29T04:33:22.740Z,2.50
2023-04-29T04:35:49.255Z,2.58
2023-04-29T04:38:15.784Z,2.00
2023-04-29T04:40:42.606Z,3.10
2023-04-29T04:43:09.003Z,3.08
2023-04-29T04:45:35.444Z,3.03
2023-04-29T04:48:01.917Z,2.60
2023-04-29T04:50:29.245Z,3.20
2023-04-29T04:52:56.384Z,3.00
2023-04-29T04:55:23.068Z,3.53
2023-04-29T04:57:49.590Z,3.13
2023-04-29T05:00:16.507Z,3.22
2023-04-29T05:02:43.048Z,2.90
2023-04-29T05:05:09.575Z,2.97
2023-04-29T05:07:36.149Z,3.25
2023-04-29T05:10:02.897Z,3.40
2023-04-29T05:12:30.962Z,3.45
2023-04-29T05:14:57.803Z,3.20
2023-04-29T05:17:24.381Z,3.38
2023-04-29T05:19:51.328Z,3.53
2023-04-29T05:22:18.027Z,3.50
2023-04-29T05:24:44.532Z,4.00
2023-04-29T05:27:10.955Z,4.00
2023-04-29T05:29:38.143Z,4.10
2023-04-29T05:32:05.063Z,4.10
2023-04-29T05:34:31.494Z,3.85
2023-04-29T05:36:57.916Z,4.60
2023-04-29T05:39:24.396Z,5.00
2023-04-29T05:41:50.928Z,3.78
2023-04-29T05:44:17.596Z,4.03
2023-04-29T05:46:44.192Z,3.67
2023-04-29T05:49:10.992Z,5.40
2023-04-29T05:51:37.420Z,4.53
2023-04-29T05:54:03.884Z,4.50
2023-04-29T05:56:31.325Z,4.20
2023-04-29T05:58:57.783Z,4.68
2023-04-29T06:01:24.275Z,4.45
2023-04-29T06:03:51.086Z,3.88
2023-04-29T06:06:17.832Z,4.43
2023-04-29T06:08:44.246Z,4.35
2023-04-29T06:11:10.598Z,4.13
2023-04-29T06:13:37.097Z,4.00
2023-04-29T06:16:03.776Z,4.72
2023-04-29T06:18:30.333Z,4.35
2023-04-29T06:20:56.761Z,4.22
2023-04-29T06:23:23.167Z,3.90
2023-04-29T06:25:51.674Z,3.88
2023-04-29T06:28:19.345Z,4.60
2023-04-29T06:30:46.585Z,3.72
2023-04-29T06:33:13.974Z,4.00
2023-04-29T06:35:44.105Z,4.28
2023-04-29T06:38:11.006Z,3.83
2023-04-29T06:40:37.483Z,4.10
2023-04-29T06:43:04.711Z,4.47
2023-04-29T06:45:31.740Z,3.70
2023-04-29T06:47:58.256Z,3.25
2023-04-29T06:50:24.818Z,3.42
2023-04-29T06:52:51.659Z,3.75
2023-04-29T06:55:18.421Z,3.55
2023-04-29T06:57:44.935Z,2.92
2023-04-29T07:00:11.630Z,3.55
2023-04-29T07:02:39.175Z,3.70
2023-04-29T07:05:06.470Z,2.92
2023-04-29T07:07:33.091Z,2.97
2023-04-29T07:09:59.638Z,3.25
2023-04-29T07:12:26.676Z,3.40
2023-04-29T07:14:53.287Z,2.53
2023-04-29T07:17:20.768Z,2.75
2023-04-29T07:19:47.296Z,2.97
2023-04-29T07:22:13.694Z,2.67
2023-04-29T07:24:40.148Z,2.85
2023-04-29T07:27:07.007Z,2.70
2023-04-29T07:29:33.568Z,2.65
2023-04-29T07:31:59.981Z,3.05
2023-04-29T07:34:26.539Z,2.60
2023-04-29T07:36:52.926Z,2.20
2023-04-29T07:39:19.413Z,2.50
2023-04-29T07:41:46.061Z,2.67
2023-04-29T07:44:12.493Z,2.65
2023-04-29T07:46:39.111Z,2.03
2023-04-29T07:49:06.958Z,2.22
2023-04-29T07:51:33.365Z,2.33
2023-04-29T07:53:59.786Z,1.98
2023-04-29T07:56:26.409Z,2.40
2023-04-29T07:58:52.907Z,2.10
2023-04-29T08:01:19.365Z,2.05
2023-04-29T08:03:46.278Z,2.40
2023-04-29T08:06:13.266Z,1.80
2023-04-29T08:08:40.046Z,1.50
2023-04-29T08:11:06.810Z,2.10
2023-04-29T08:13:33.434Z,1.60
2023-04-29T08:16:00.039Z,1.90
2023-04-29T08:18:26.839Z,1.65
2023-04-29T08:20:53.305Z,1.80
2023-04-29T08:23:19.707Z,1.50
2023-04-29T08:25:46.384Z,1.95
2023-04-29T08:28:13.161Z,1.73
2023-04-29T08:30:41.021Z,2.05
2023-04-29T08:33:08.437Z,2.13
2023-04-29T08:35:37.730Z,2.42
2023-04-29T08:38:07.279Z,2.65
2023-04-29T08:40:41.522Z,2.42
2023-04-29T08:43:10.176Z,2.65
2023-04-29T08:45:37.097Z,2.45
2023-04-29T08:48:06.621Z,2.20
2023-04-29T08:50:37.122Z,2.40
2023-04-29T08:53:03.604Z,2.50
2023-04-29T08:55:30.402Z,2.55
2023-04-29T08:57:56.953Z,2.22
2023-04-29T09:00:24.648Z,2.70
2023-04-29T09:02:52.464Z,2.60
2023-04-29T09:05:19.227Z,2.50
2023-04-29T09:07:46.301Z,2.78
2023-04-29T09:10:13.272Z,2.70
2023-04-29T09:12:39.870Z,3.10
2023-04-29T09:15:07.051Z,2.30
2023-04-29T09:17:39.703Z,2.97
2023-04-29T09:20:21.420Z,3.10
2023-04-29T09:22:48.921Z,2.70
2023-04-29T09:25:15.577Z,2.78
2023-04-29T09:27:42.647Z,3.15
2023-04-29T09:30:09.481Z,3.60
2023-04-29T09:32:38.451Z,2.40
2023-04-29T09:35:21.218Z,3.13
2023-04-29T09:37:47.626Z,3.55
2023-04-29T09:40:57.278Z,3.65
2023-04-29T09:43:25.091Z,3.25
2023-04-29T09:45:51.782Z,3.20
2023-04-29T09:48:18.692Z,3.50
2023-04-29T09:50:58.860Z,3.17
2023-04-29T09:53:29.693Z,3.50
2023-04-29T09:56:02.723Z,2.72
2023-04-29T09:58:40.270Z,3.20
2023-04-29T10:01:07.566Z,2.90
2023-04-29T10:03:35.473Z,2.92
2023-04-29T10:06:03.236Z,3.38
2023-04-29T10:08:30.187Z,3.15
2023-04-29T10:10:58.988Z,2.65
2023-04-29T10:13:26.866Z,3.47
2023-04-29T10:15:58.959Z,3.13
2023-04-29T10:18:37.307Z,2.88
2023-04-29T10:21:06.859Z,3.55
2023-04-29T10:23:33.659Z,3.00
2023-04-29T10:26:01.117Z,3.15
2023-04-29T10:28:27.826Z,3.88
2023-04-29T10:30:54.656Z,3.70
2023-04-29T10:33:21.728Z,3.65
2023-04-29T10:35:49.483Z,3.78
2023-04-29T10:38:26.842Z,4.00
2023-04-29T10:40:53.967Z,3.65
2023-04-29T10:43:26.892Z,3.30
2023-04-29T10:46:12.410Z,3.40
2023-04-29T10:48:38.965Z,3.78
2023-04-29T10:51:06.046Z,3.30
2023-04-29T10:53:32.662Z,4.53
2023-04-29T10:56:09.227Z,3.85
2023-04-29T10:58:36.580Z,3.65
2023-04-29T11:01:03.689Z,2.97
2023-04-29T11:03:55.029Z,3.53
2023-04-29T11:06:26.140Z,3.92
2023-04-29T11:09:08.249Z,3.67
2023-04-29T11:11:43.056Z,3.50
2023-04-29T11:14:11.627Z,3.63
2023-04-29T11:16:38.910Z,3.50
2023-04-29T11:19:06.795Z,3.50
2023-04-29T11:21:36.684Z,3.38
2023-04-29T11:24:04.585Z,3.17
2023-04-29T11:26:31.019Z,3.45
2023-04-29T11:28:58.486Z,2.83
2023-04-29T11:31:43.199Z,3.00
2023-04-29T11:34:09.770Z,3.03
2023-04-29T11:36:36.886Z,3.70
2023-04-29T11:39:04.345Z,3.05
2023-04-29T11:41:31.624Z,3.55
2023-04-29T11:43:59.127Z,2.87
2023-04-29T11:46:26.583Z,3.33
2023-04-29T11:48:53.308Z,3.50
2023-04-29T11:51:20.107Z,2.78
2023-04-29T11:53:46.655Z,3.13
2023-04-29T11:56:13.416Z,2.85
2023-04-29T11:58:39.905Z,2.80
2023-04-29T12:01:06.451Z,2.83
2023-04-29T12:03:34.191Z,3.10
2023-04-29T12:06:01.917Z,3.35
2023-04-29T12:08:29.471Z,3.10
2023-04-29T12:10:57.380Z,2.88
2023-04-29T12:13:26.049Z,3.25
2023-04-29T12:15:53.129Z,2.92
2023-04-29T12:18:20.073Z,2.72
2023-04-29T12:20:48.214Z,3.00
2023-04-29T12:23:15.522Z,3.15
2023-04-29T12:25:42.613Z,3.20
2023-04-29T12:28:12.894Z,2.60
2023-04-29T12:30:39.731Z,3.10
2023-04-29T12:33:09.313Z,3.03
2023-04-29T12:35:37.006Z,3.25
2023-04-29T12:38:03.601Z,3.65
2023-04-29T12:40:30.448Z,2.97
2023-04-29T12:42:57.034Z,3.60
2023-04-29T12:45:27.392Z,3.53
2023-04-29T12:47:55.453Z,3.70
2023-04-29T12:50:28.759Z,3.70
2023-04-29T12:52:55.201Z,4.50
2023-04-29T12:55:21.711Z,4.40
2023-04-29T12:57:48.168Z,4.38
2023-04-29T13:00:15.546Z,4.30
2023-04-29T13:02:42.236Z,4.63
2023-04-29T13:05:09.100Z,4.20
2023-04-29T13:07:37.153Z,3.72
2023-04-29T13:12:33.400Z,3.60
2023-04-29T13:15:00.221Z,4.07
2023-04-29T13:17:26.978Z,3.40
2023-04-29T13:19:53.853Z,3.65
2023-04-29T13:22:21.738Z,3.30
2023-04-29T13:24:48.289Z,3.10
2023-04-29T13:27:14.823Z,2.75
2023-04-29T13:29:41.563Z,3.00
2023-04-29T13:32:09.098Z,3.17
2023-04-29T13:34:35.962Z,4.00
2023-04-29T13:37:02.838Z,4.60
2023-04-29T13:39:29.384Z,3.30
2023-04-29T13:41:59.042Z,3.08
2023-04-29T13:44:34.249Z,2.90
2023-04-29T13:47:02.398Z,3.55
2023-04-29T13:49:58.751Z,3.17
2023-04-29T13:53:07.346Z,2.63
2023-04-29T13:55:39.655Z,2.88
2023-04-29T14:00:47.021Z,2.00
2023-04-29T14:05:34.595Z,2.35
2023-04-29T14:08:01.504Z,1.88
2023-04-29T14:10:28.015Z,1.83
2023-04-29T14:12:54.553Z,2.10
2023-04-29T14:15:21.976Z,1.58
2023-04-29T14:17:50.441Z,1.60
2023-04-29T14:20:16.989Z,1.40
2023-04-29T14:22:43.492Z,1.60
2023-04-29T14:25:10.121Z,1.73
2023-04-29T14:27:37.173Z,1.40
2023-04-29T14:30:04.957Z,1.20
2023-04-29T14:32:31.460Z,1.58
2023-04-29T14:34:58.938Z,1.30
2023-04-29T14:37:27.199Z,1.88
2023-04-29T14:39:53.717Z,1.55
2023-04-29T14:42:20.328Z,1.75
2023-04-29T14:44:47.064Z,1.85
2023-04-29T14:47:13.724Z,2.03
2023-04-29T14:49:41.138Z,1.73
2023-04-29T14:52:07.738Z,1.83
2023-04-29T14:54:34.257Z,1.90
2023-04-29T14:57:00.715Z,2.20
2023-04-29T14:59:29.706Z,2.42
2023-04-29T15:01:57.454Z,2.50
2023-04-29T15:04:24.080Z,2.78
2023-04-29T15:06:51.457Z,1.73
2023-04-29T15:09:18.293Z,1.70
2023-04-29T15:11:44.767Z,1.33
2023-04-29T15:14:11.528Z,2.00
2023-04-29T15:16:38.097Z,1.50
2023-04-29T15:19:04.573Z,2.13
2023-04-29T15:21:32.121Z,2.30
2023-04-29T15:24:00.151Z,2.20
2023-04-29T15:28:53.509Z,1.95
2023-04-29T15:31:21.813Z,2.58
2023-04-29T15:33:53.586Z,1.75
2023-04-29T15:36:30.368Z,1.67
2023-04-29T15:38:56.977Z,1.92
2023-04-29T15:41:25.980Z,1.55
2023-04-29T15:43:52.775Z,1.88
2023-04-29T15:46:19.770Z,1.60
2023-04-29T15:48:46.374Z,1.90
2023-04-29T15:51:15.179Z,1.40
2023-04-29T15:53:43.774Z,1.40
2023-04-29T15:58:37.130Z,1.23
2023-04-29T16:01:05.056Z,1.20
2023-04-29T16:03:31.696Z,1.50
2023-04-29T16:05:58.370Z,1.35
2023-04-29T16:08:25.304Z,1.30
2023-04-29T16:10:52.128Z,1.10
2023-04-29T16:13:18.540Z,1.30
2023-04-29T16:15:45.034Z,1.60
2023-04-29T16:18:12.286Z,1.20
2023-04-29T16:20:38.852Z,1.05
2023-04-29T16:23:06.341Z,1.17
2023-04-29T16:25:33.014Z,1.20
2023-04-29T16:27:59.521Z,1.05
2023-04-29T16:30:26.134Z,1.23
2023-04-29T16:32:53.113Z,1.48
2023-04-29T16:35:25.196Z,1.08
2023-04-29T16:37:53.637Z,0.93
2023-04-29T16:42:46.859Z,1.10
2023-04-29T16:45:14.718Z,1.10
2023-04-29T16:47:41.874Z,1.30
2023-04-29T16:50:09.179Z,1.17
2023-04-29T16:52:36.147Z,1.20
2023-04-29T16:55:03.722Z,1.23
2023-04-29T16:57:30.751Z,1.45
2023-04-29T16:59:57.216Z,1.30
2023-04-29T17:02:23.696Z,1.42
2023-04-29T17:04:51.457Z,1.40
2023-04-29T17:07:19.753Z,1.67
2023-04-29T17:09:51.054Z,1.60
2023-04-29T17:12:17.644Z,1.73
2023-04-29T17:14:44.415Z,1.27
2023-04-29T17:17:11.253Z,1.65
2023-04-29T17:19:37.714Z,1.25
2023-04-29T17:22:04.392Z,1.60
2023-04-29T17:24:31.270Z,1.55
2023-04-29T17:26:59.619Z,1.42
2023-04-29T17:29:26.346Z,1.67
2023-04-29T17:31:59.939Z,1.42
2023-04-29T17:34:28.838Z,2.10
2023-04-29T17:36:55.712Z,1.38
2023-04-29T17:39:25.169Z,1.70
2023-04-29T17:41:51.907Z,1.40
2023-04-29T17:44:19.665Z,1.60
2023-04-29T17:46:47.199Z,1.58
2023-04-29T17:49:13.802Z,1.30
2023-04-29T17:51:40.332Z,2.03
2023-04-29T17:54:07.334Z,1.45
2023-04-29T17:56:35.194Z,2.00
2023-04-29T17:59:11.218Z,1.73
2023-04-29T18:01:37.906Z,1.55
2023-04-29T18:04:04.954Z,1.75
2023-04-29T18:06:32.016Z,1.67
2023-04-29T18:08:58.577Z,2.35
2023-04-29T18:11:25.247Z,2.72
2023-04-29T18:13:52.966Z,1.50
2023-04-29T18:16:19.534Z,1.65
2023-04-29T18:18:46.348Z,1.70
2023-04-29T18:21:15.847Z,1.60
2023-04-29T18:26:08.736Z,1.50
2023-04-29T18:28:35.561Z,1.58
2023-04-29T18:31:02.172Z,1.63
2023-04-29T18:33:31.860Z,1.75
2023-04-29T18:35:58.601Z,1.60
2023-04-29T18:38:25.290Z,1.20
2023-04-29T18:40:51.932Z,1.60
2023-04-29T18:43:24.509Z,1.90
2023-04-29T18:45:51.125Z,1.73
2023-04-29T18:48:17.645Z,1.20
2023-04-29T18:50:44.517Z,1.45
2023-04-29T18:53:11.599Z,1.35
2023-04-29T18:55:38.033Z,1.45
2023-04-29T18:58:08.317Z,1.30
2023-04-29T19:00:34.811Z,1.27
2023-04-29T19:03:01.390Z,1.33
2023-04-29T19:05:27.967Z,1.48
2023-04-29T19:07:54.730Z,1.90
2023-04-29T19:10:21.684Z,1.42
2023-04-29T19:12:48.433Z,1.20
2023-04-29T19:15:15.332Z,1.20
2023-04-29T19:17:41.853Z,1.33
2023-04-29T19:20:08.725Z,1.50
2023-04-29T19:22:39.016Z,1.08
2023-04-29T19:25:05.667Z,1.50
2023-04-29T19:27:32.448Z,1.30
2023-04-29T19:29:59.042Z,1.38
2023-04-29T19:32:27.105Z,2.00
2023-04-29T19:34:55.257Z,1.20
2023-04-29T19:37:21.964Z,1.55
2023-04-29T19:39:48.613Z,1.50
2023-04-29T19:42:15.088Z,1.80
2023-04-29T19:44:42.732Z,1.60
2023-04-29T19:47:09.199Z,2.72
2023-04-29T19:49:36.871Z,2.50
2023-04-29T19:52:03.745Z,1.38
2023-04-29T19:54:31.026Z,1.30
2023-04-29T19:56:57.734Z,1.88
2023-04-29T19:59:24.470Z,1.58
2023-04-29T20:01:52.149Z,1.27
2023-04-29T20:04:18.753Z,1.98
2023-04-29T20:06:45.694Z,1.30
2023-04-29T20:09:13.048Z,1.65
2023-04-29T20:11:39.907Z,1.92
2023-04-29T20:14:06.402Z,1.52
2023-04-29T20:16:35.447Z,1.58
2023-04-29T20:19:02.060Z,1.30
2023-04-29T20:21:28.913Z,1.40
2023-04-29T20:23:56.090Z,1.70
2023-04-29T20:26:22.776Z,1.13
2023-04-29T20:28:51.044Z,1.40
2023-04-29T20:31:17.775Z,1.33
2023-04-29T20:33:44.547Z,1.88
2023-04-29T20:36:11.145Z,1.50
2023-04-29T20:38:37.714Z,1.80
2023-04-29T20:41:06.125Z,1.40
2023-04-29T20:43:32.902Z,1.38
2023-04-29T20:46:00.804Z,1.73
2023-04-29T20:48:28.386Z,1.63
2023-04-29T20:50:54.880Z,1.58
2023-04-29T20:53:22.031Z,1.75
2023-04-29T20:55:48.674Z,1.30
2023-04-29T20:58:16.641Z,1.50
2023-04-29T21:00:43.139Z,1.80
2023-04-29T21:03:10.524Z,1.40
2023-04-29T21:05:37.179Z,1.30
2023-04-29T21:08:03.791Z,1.65
2023-04-29T21:13:59.377Z,1.30
2023-04-29T21:16:26.396Z,1.35
2023-04-29T21:18:53.014Z,1.50
2023-04-29T21:21:19.706Z,2.10
2023-04-29T21:23:46.174Z,1.63
2023-04-29T21:26:15.125Z,2.20
2023-04-29T21:28:41.780Z,1.52
2023-04-29T21:31:15.264Z,1.65
2023-04-29T21:33:43.415Z,2.53
2023-04-29T21:36:10.050Z,1.40
2023-04-29T21:38:36.507Z,1.67
2023-04-29T21:41:05.081Z,1.40
2023-04-29T21:43:31.939Z,1.57
2023-04-29T21:45:58.545Z,1.50
2023-04-29T21:48:26.382Z,1.60
2023-04-29T21:50:53.180Z,1.65
2023-04-29T21:53:19.688Z,1.85
2023-04-29T21:55:46.869Z,1.65
2023-04-29T21:58:13.617Z,1.70
2023-04-29T22:00:47.970Z,2.67
2023-04-29T22:03:15.340Z,2.15
2023-04-29T22:05:41.982Z,2.00
2023-04-29T22:08:08.541Z,2.22
2023-04-29T22:10:35.285Z,1.73
2023-04-29T22:13:01.848Z,1.83
2023-04-29T22:15:29.690Z,2.38
2023-04-29T22:17:57.007Z,2.10
2023-04-29T22:20:23.826Z,2.35
2023-04-29T22:22:50.569Z,1.88
2023-04-29T22:25:18.181Z,2.13
2023-04-29T22:27:44.657Z,2.35
2023-04-29T22:30:11.720Z,2.58
2023-04-29T22:32:40.270Z,3.00
2023-04-29T22:35:06.848Z,2.20
2023-04-29T22:37:33.562Z,2.47
2023-04-29T22:40:00.235Z,1.88
2023-04-29T22:42:26.820Z,2.70
2023-04-29T22:44:53.372Z,2.33
2023-04-29T22:47:19.804Z,2.25
2023-04-29T22:49:46.581Z,2.10
2023-04-29T22:52:13.083Z,2.35
2023-04-29T22:54:39.501Z,2.63
2023-04-29T22:57:07.687Z,2.40
2023-04-29T22:59:34.205Z,2.50
2023-04-29T23:02:00.732Z,2.05
2023-04-29T23:04:27.216Z,2.50
2023-04-29T23:06:53.836Z,2.70
2023-04-29T23:09:20.380Z,2.58
2023-04-29T23:11:46.978Z,2.00
2023-04-29T23:14:13.509Z,2.45
2023-04-29T23:16:39.916Z,2.30
2023-04-29T23:19:06.521Z,2.63
2023-04-29T23:21:32.912Z,2.85
2023-04-29T23:23:59.320Z,2.97
2023-04-29T23:26:25.785Z,2.63
2023-04-29T23:28:52.692Z,2.70
2023-04-29T23:31:19.285Z,2.30
2023-04-29T23:33:47.963Z,2.33
2023-04-29T23:36:14.473Z,2.37
2023-04-29T23:38:40.982Z,2.88
2023-04-29T23:41:07.523Z,2.15
2023-04-29T23:43:34.010Z,2.35
2023-04-29T23:46:00.470Z,2.05
2023-04-29T23:48:27.163Z,2.33
2023-04-29T23:50:57.607Z,2.28
2023-04-29T23:53:24.189Z,2.35
2023-04-29T23:55:50.811Z,2.17
2023-04-29T23:58:17.410Z,2.35
